createdAt,value
2017-07-29T00:00:25.627Z,0
2017-07-29T00:01:25.397Z,0
2017-07-29T00:02:25.692Z,0
2017-07-29T00:03:25.706Z,0
2017-07-29T00:04:25.715Z,0
2017-07-29T00:06:40.381Z,0
2017-07-29T00:07:25.814Z,0
2017-07-29T00:08:25.828Z,0
2017-07-29T00:09:25.848Z,0
2017-07-29T00:10:25.875Z,0
2017-07-29T00:11:25.867Z,0
2017-07-29T00:12:25.915Z,0
2017-07-29T00:13:25.628Z,0
2017-07-29T00:14:25.669Z,0
2017-07-29T00:15:25.995Z,0
2017-07-29T00:16:26.025Z,0
2017-07-29T00:17:26.031Z,0
2017-07-29T00:18:26.046Z,0
2017-07-29T00:19:26.101Z,0
2017-07-29T00:20:26.103Z,0
2017-07-29T00:21:26.142Z,0
2017-07-29T00:22:40.752Z,0
2017-07-29T00:23:26.187Z,0
2017-07-29T00:24:26.188Z,0
2017-07-29T00:25:26.226Z,0
2017-07-29T00:26:40.542Z,0
2017-07-29T00:27:26.284Z,0
2017-07-29T00:28:40.890Z,0
2017-07-29T00:29:26.332Z,0
2017-07-29T00:30:26.357Z,0
2017-07-29T00:31:26.376Z,0
2017-07-29T00:32:26.383Z,0
2017-07-29T00:33:26.124Z,0
2017-07-29T00:34:26.426Z,0
2017-07-29T00:35:26.469Z,0
2017-07-29T00:36:26.490Z,0
2017-07-29T00:37:41.120Z,0
2017-07-29T00:38:26.563Z,0
2017-07-29T00:40:26.596Z,0
2017-07-29T00:41:40.908Z,0
2017-07-29T00:42:26.620Z,0
2017-07-29T00:43:26.345Z,0
2017-07-29T00:44:26.700Z,0
2017-07-29T00:45:26.712Z,0
2017-07-29T00:46:26.722Z,0
2017-07-29T00:47:26.760Z,0
2017-07-29T00:48:26.770Z,0
2017-07-29T00:49:26.813Z,0
2017-07-29T00:50:26.832Z,0
2017-07-29T00:51:26.855Z,0
2017-07-29T00:52:26.875Z,0
2017-07-29T00:53:41.504Z,0
2017-07-29T00:54:41.529Z,0
2017-07-29T00:55:26.955Z,0
2017-07-29T00:56:26.962Z,0
2017-07-29T00:57:27.008Z,0
2017-07-29T00:58:27.019Z,0
2017-07-29T00:59:27.043Z,0
2017-07-29T01:00:27.053Z,0
2017-07-29T01:01:27.098Z,0
2017-07-29T01:02:27.113Z,0
2017-07-29T01:03:41.742Z,0
2017-07-29T01:04:27.155Z,0
2017-07-29T01:05:27.179Z,0
2017-07-29T01:06:27.226Z,0
2017-07-29T01:07:27.230Z,0
2017-07-29T01:08:27.272Z,0
2017-07-29T01:09:41.882Z,0
2017-07-29T01:10:27.000Z,0
2017-07-29T01:11:27.342Z,0
2017-07-29T01:12:41.958Z,0
2017-07-29T01:13:41.972Z,0
2017-07-29T01:14:27.415Z,0
2017-07-29T01:15:27.464Z,0
2017-07-29T01:16:27.465Z,0
2017-07-29T01:17:27.472Z,0
2017-07-29T01:18:27.503Z,0
2017-07-29T01:19:27.526Z,0
2017-07-29T01:20:42.140Z,0
2017-07-29T01:21:27.591Z,0
2017-07-29T01:22:27.282Z,0
2017-07-29T01:23:27.633Z,0
2017-07-29T01:24:27.637Z,0
2017-07-29T01:25:42.276Z,0
2017-07-29T01:26:27.695Z,0
2017-07-29T01:27:27.715Z,0
2017-07-29T01:28:27.416Z,0
2017-07-29T01:29:27.744Z,0
2017-07-29T01:30:27.798Z,0
2017-07-29T01:31:42.407Z,0
2017-07-29T01:32:27.845Z,0
2017-07-29T01:33:27.854Z,0
2017-07-29T01:34:27.885Z,0
2017-07-29T01:35:42.519Z,0
2017-07-29T01:36:28.238Z,0
2017-07-29T01:37:27.957Z,0
2017-07-29T01:38:27.687Z,0
2017-07-29T01:39:27.988Z,0
2017-07-29T01:40:28.030Z,0
2017-07-29T01:41:42.628Z,0
2017-07-29T01:42:42.678Z,0
2017-07-29T01:43:27.802Z,0
2017-07-29T01:44:27.811Z,0
2017-07-29T01:45:28.166Z,0
2017-07-29T01:46:28.163Z,0
2017-07-29T01:47:28.209Z,0
2017-07-29T01:48:28.233Z,0
2017-07-29T01:49:28.252Z,0
2017-07-29T01:50:27.957Z,0
2017-07-29T01:51:28.286Z,0
2017-07-29T01:52:28.325Z,0
2017-07-29T01:53:28.337Z,0
2017-07-29T01:54:28.361Z,0
2017-07-29T01:55:28.384Z,0
2017-07-29T01:56:28.418Z,0
2017-07-29T01:57:43.034Z,0
2017-07-29T01:58:28.461Z,0
2017-07-29T01:59:28.502Z,0
2017-07-29T02:00:28.503Z,0
2017-07-29T02:01:28.540Z,0
2017-07-29T02:03:28.566Z,0
2017-07-29T02:04:43.215Z,0
2017-07-29T02:07:28.359Z,0
2017-07-29T02:08:28.696Z,0
2017-07-29T02:09:28.090Z,0
2017-07-29T02:10:28.732Z,0
2017-07-29T02:11:28.759Z,0
2017-07-29T02:12:43.389Z,0
2017-07-29T02:13:28.822Z,0
2017-07-29T02:14:29.161Z,0
2017-07-29T02:15:28.864Z,0
2017-07-29T02:16:28.905Z,0
2017-07-29T02:17:28.298Z,0
2017-07-29T02:18:43.232Z,0
2017-07-29T02:19:28.940Z,0
2017-07-29T02:20:28.967Z,0
2017-07-29T02:21:29.018Z,0
2017-07-29T02:22:29.069Z,0
2017-07-29T02:23:29.071Z,0
2017-07-29T02:24:29.066Z,0
2017-07-29T02:25:29.105Z,0
2017-07-29T02:26:29.117Z,0
2017-07-29T02:27:29.153Z,0
2017-07-29T02:28:28.851Z,0
2017-07-29T02:29:28.907Z,0
2017-07-29T02:30:29.241Z,0
2017-07-29T02:31:29.257Z,0
2017-07-29T02:32:29.268Z,0
2017-07-29T02:33:28.988Z,0
2017-07-29T02:34:29.333Z,0
2017-07-29T02:35:29.346Z,0
2017-07-29T02:36:43.981Z,0
2017-07-29T02:38:44.015Z,0
2017-07-29T02:39:29.434Z,0
2017-07-29T02:40:29.479Z,0
2017-07-29T02:41:29.484Z,0
2017-07-29T02:42:29.526Z,0
2017-07-29T02:43:29.520Z,0
2017-07-29T02:44:44.166Z,0
2017-07-29T02:45:29.586Z,0
2017-07-29T02:46:29.663Z,0
2017-07-29T02:47:29.330Z,4
2017-07-29T02:48:29.654Z,4
2017-07-29T02:49:29.660Z,0
2017-07-29T02:50:29.685Z,0
2017-07-29T02:51:29.748Z,4
2017-07-29T02:52:29.744Z,4
2017-07-29T02:53:29.782Z,0
2017-07-29T02:54:44.393Z,4
2017-07-29T02:55:29.836Z,4
2017-07-29T02:56:29.862Z,8
2017-07-29T02:57:29.868Z,4
2017-07-29T02:58:29.896Z,8
2017-07-29T02:59:29.913Z,8
2017-07-29T03:00:44.541Z,8
2017-07-29T03:01:29.967Z,8
2017-07-29T03:02:44.598Z,8
2017-07-29T03:03:30.019Z,12
2017-07-29T03:04:30.036Z,12
2017-07-29T03:05:30.058Z,16
2017-07-29T03:06:30.081Z,20
2017-07-29T03:07:29.845Z,24
2017-07-29T03:08:29.829Z,28
2017-07-29T03:09:29.847Z,32
2017-07-29T03:10:44.783Z,36
2017-07-29T03:11:44.812Z,44
2017-07-29T03:12:30.238Z,48
2017-07-29T03:13:44.846Z,60
2017-07-29T03:14:30.280Z,68
2017-07-29T03:15:30.310Z,72
2017-07-29T03:16:44.609Z,80
2017-07-29T03:17:30.052Z,80
2017-07-29T03:18:30.371Z,80
2017-07-29T03:19:30.404Z,80
2017-07-29T03:20:30.403Z,88
2017-07-29T03:21:30.445Z,92
2017-07-29T03:22:30.458Z,100
2017-07-29T03:23:30.495Z,108
2017-07-29T03:24:30.531Z,120
2017-07-29T03:25:30.525Z,132
2017-07-29T03:26:30.570Z,148
2017-07-29T03:27:30.993Z,160
2017-07-29T03:28:30.622Z,172
2017-07-29T03:29:30.628Z,184
2017-07-29T03:30:30.685Z,196
2017-07-29T03:31:30.677Z,204
2017-07-29T03:32:45.003Z,216
2017-07-29T03:33:30.724Z,224
2017-07-29T03:34:30.763Z,236
2017-07-29T03:35:30.778Z,244
2017-07-29T03:36:30.799Z,260
2017-07-29T03:37:30.813Z,276
2017-07-29T03:38:30.852Z,292
2017-07-29T03:39:30.864Z,308
2017-07-29T03:40:30.911Z,316
2017-07-29T03:41:30.925Z,320
2017-07-29T03:42:45.549Z,320
2017-07-29T03:43:30.657Z,324
2017-07-29T03:44:30.993Z,340
2017-07-29T03:45:31.025Z,368
2017-07-29T03:47:45.670Z,432
2017-07-29T03:48:31.085Z,452
2017-07-29T03:49:45.715Z,496
2017-07-29T03:50:31.147Z,528
2017-07-29T03:51:45.742Z,576
2017-07-29T03:52:30.891Z,596
2017-07-29T03:53:31.215Z,600
2017-07-29T03:54:45.527Z,580
2017-07-29T03:55:31.254Z,560
2017-07-29T03:56:31.284Z,528
2017-07-29T03:57:31.305Z,508
2017-07-29T03:58:31.314Z,500
2017-07-29T03:59:31.365Z,524
2017-07-29T04:00:31.378Z,572
2017-07-29T04:01:31.413Z,648
2017-07-29T04:02:31.417Z,764
2017-07-29T04:03:31.444Z,924
2017-07-29T04:04:31.487Z,1096
2017-07-29T04:05:46.099Z,1324
2017-07-29T04:06:31.522Z,1464
2017-07-29T04:07:31.547Z,1640
2017-07-29T04:08:31.559Z,1828
2017-07-29T04:10:31.618Z,2104
2017-07-29T04:11:31.652Z,2216
2017-07-29T04:13:46.283Z,2440
2017-07-29T04:14:31.714Z,2512
2017-07-29T04:15:31.720Z,2528
2017-07-29T04:16:31.453Z,2416
2017-07-29T04:17:31.774Z,2208
2017-07-29T04:18:31.511Z,2008
2017-07-29T04:19:46.443Z,1900
2017-07-29T04:20:31.867Z,1852
2017-07-29T04:21:31.561Z,1796
2017-07-29T04:22:31.915Z,1716
2017-07-29T04:23:31.922Z,1620
2017-07-29T04:24:46.550Z,1528
2017-07-29T04:25:31.990Z,1504
2017-07-29T04:26:46.590Z,1496
2017-07-29T04:27:32.029Z,1492
2017-07-29T04:28:32.039Z,1456
2017-07-29T04:29:46.684Z,1384
2017-07-29T04:30:32.092Z,1364
2017-07-29T04:31:32.120Z,1340
2017-07-29T04:33:32.167Z,1296
2017-07-29T04:34:46.790Z,1296
2017-07-29T04:36:01.417Z,1324
2017-07-29T04:36:32.256Z,1336
2017-07-29T04:37:32.245Z,1372
2017-07-29T04:38:32.295Z,1412
2017-07-29T04:39:32.305Z,1456
2017-07-29T04:40:32.344Z,1484
2017-07-29T04:41:32.100Z,1536
2017-07-29T04:42:32.087Z,1652
2017-07-29T04:43:32.405Z,1840
2017-07-29T04:44:32.457Z,2276
2017-07-29T04:45:32.447Z,2916
2017-07-29T04:46:32.487Z,3264
2017-07-29T04:47:32.498Z,3452
2017-07-29T04:48:32.546Z,3564
2017-07-29T04:49:32.557Z,3564
2017-07-29T04:50:32.566Z,3448
2017-07-29T04:52:01.804Z,3232
2017-07-29T04:53:32.655Z,2840
2017-07-29T04:54:32.668Z,2484
2017-07-29T04:55:32.703Z,2152
2017-07-29T04:56:32.724Z,1872
2017-07-29T04:57:32.749Z,1740
2017-07-29T04:58:32.770Z,1924
2017-07-29T04:59:32.515Z,2288
2017-07-29T05:00:32.818Z,2496
2017-07-29T05:01:32.847Z,2580
2017-07-29T05:02:32.873Z,2548
2017-07-29T05:03:32.897Z,2460
2017-07-29T05:04:32.901Z,2372
2017-07-29T05:05:32.943Z,2292
2017-07-29T05:06:32.968Z,2196
2017-07-29T05:07:47.280Z,2092
2017-07-29T05:08:33.021Z,1984
2017-07-29T05:09:47.640Z,1792
2017-07-29T05:10:33.059Z,1704
2017-07-29T05:11:33.112Z,1616
2017-07-29T05:12:33.118Z,1528
2017-07-29T05:13:33.130Z,1460
2017-07-29T05:14:33.178Z,1420
2017-07-29T05:15:47.778Z,1480
2017-07-29T05:16:33.228Z,1540
2017-07-29T05:17:47.825Z,1624
2017-07-29T05:18:33.262Z,1676
2017-07-29T05:19:33.273Z,1748
2017-07-29T05:20:33.302Z,1844
2017-07-29T05:21:33.329Z,1980
2017-07-29T05:22:47.961Z,2168
2017-07-29T05:23:33.375Z,2292
2017-07-29T05:24:33.414Z,2428
2017-07-29T05:25:33.429Z,2548
2017-07-29T05:26:33.461Z,2580
2017-07-29T05:27:33.459Z,2492
2017-07-29T05:28:33.508Z,2352
2017-07-29T05:29:33.208Z,2244
2017-07-29T05:30:33.538Z,2104
2017-07-29T05:31:33.562Z,2000
2017-07-29T05:32:33.598Z,1924
2017-07-29T05:33:33.628Z,1872
2017-07-29T05:34:33.654Z,1832
2017-07-29T05:35:48.260Z,1828
2017-07-29T05:36:33.675Z,1840
2017-07-29T05:37:33.735Z,1884
2017-07-29T05:38:33.748Z,1968
2017-07-29T05:39:33.786Z,2040
2017-07-29T05:40:33.793Z,2100
2017-07-29T05:41:33.833Z,2180
2017-07-29T05:42:33.829Z,2308
2017-07-29T05:43:33.869Z,2460
2017-07-29T05:44:33.891Z,2616
2017-07-29T05:45:33.923Z,2816
2017-07-29T05:46:33.952Z,3148
2017-07-29T05:47:48.556Z,3760
2017-07-29T05:48:33.976Z,4148
2017-07-29T05:49:34.026Z,4796
2017-07-29T05:50:33.721Z,5544
2017-07-29T05:51:33.749Z,6168
2017-07-29T05:52:34.056Z,6776
2017-07-29T05:53:34.100Z,6912
2017-07-29T05:54:48.714Z,6624
2017-07-29T05:55:48.760Z,6236
2017-07-29T05:56:34.196Z,5792
2017-07-29T05:57:33.886Z,5204
2017-07-29T05:58:48.827Z,4672
2017-07-29T05:59:34.240Z,4504
2017-07-29T06:00:34.263Z,3900
2017-07-29T06:01:34.285Z,3636
2017-07-29T06:02:34.337Z,3456
2017-07-29T06:03:34.367Z,3320
2017-07-29T06:04:34.358Z,3068
2017-07-29T06:05:34.102Z,2892
2017-07-29T06:06:34.431Z,2864
2017-07-29T06:07:34.468Z,3080
2017-07-29T06:08:34.465Z,3464
2017-07-29T06:09:34.513Z,4012
2017-07-29T06:10:49.136Z,4256
2017-07-29T06:11:34.533Z,4260
2017-07-29T06:12:34.592Z,4224
2017-07-29T06:13:34.604Z,4152
2017-07-29T06:14:34.635Z,3928
2017-07-29T06:15:34.644Z,3520
2017-07-29T06:16:34.681Z,3268
2017-07-29T06:17:34.711Z,3316
2017-07-29T06:18:49.018Z,3544
2017-07-29T06:19:49.360Z,3616
2017-07-29T06:20:49.380Z,3464
2017-07-29T06:21:49.389Z,3312
2017-07-29T06:22:49.427Z,3232
2017-07-29T06:23:34.832Z,3400
2017-07-29T06:24:34.866Z,3812
2017-07-29T06:25:34.581Z,3832
2017-07-29T06:27:49.551Z,4816
2017-07-29T06:28:34.989Z,5116
2017-07-29T06:29:35.016Z,4940
2017-07-29T06:30:34.998Z,4684
2017-07-29T06:31:35.033Z,4576
2017-07-29T06:32:35.086Z,4768
2017-07-29T06:33:34.793Z,5088
2017-07-29T06:34:35.121Z,5272
2017-07-29T06:35:35.142Z,5756
2017-07-29T06:36:35.178Z,6180
2017-07-29T06:37:35.177Z,7292
2017-07-29T06:38:35.231Z,9372
2017-07-29T06:39:35.235Z,11964
2017-07-29T06:40:34.975Z,16460
2017-07-29T06:41:35.308Z,16616
2017-07-29T06:42:49.919Z,14508
2017-07-29T06:43:35.037Z,13312
2017-07-29T06:44:49.971Z,10936
2017-07-29T06:45:35.392Z,9832
2017-07-29T06:46:35.420Z,8564
2017-07-29T06:47:35.433Z,7380
2017-07-29T06:48:35.488Z,6860
2017-07-29T06:49:50.142Z,8056
2017-07-29T06:50:35.533Z,9252
2017-07-29T06:52:35.569Z,9728
2017-07-29T06:53:50.210Z,7544
2017-07-29T06:54:35.626Z,6384
2017-07-29T06:55:35.649Z,5412
2017-07-29T06:56:35.658Z,4964
2017-07-29T06:57:50.307Z,4768
2017-07-29T06:58:35.432Z,4744
2017-07-29T06:59:35.751Z,4772
2017-07-29T07:00:35.794Z,5168
2017-07-29T07:01:35.797Z,6216
2017-07-29T07:02:35.526Z,7320
2017-07-29T07:03:35.850Z,8520
2017-07-29T07:04:35.592Z,10200
2017-07-29T07:05:35.914Z,11464
2017-07-29T07:06:35.622Z,10368
2017-07-29T07:07:50.552Z,7792
2017-07-29T07:08:35.663Z,7136
2017-07-29T07:09:36.017Z,5964
2017-07-29T07:10:36.040Z,4828
2017-07-29T07:11:35.748Z,3976
2017-07-29T07:12:36.094Z,3368
2017-07-29T07:13:50.716Z,2984
2017-07-29T07:14:36.136Z,2888
2017-07-29T07:15:36.186Z,2848
2017-07-29T07:16:50.787Z,2792
2017-07-29T07:17:50.830Z,2848
2017-07-29T07:18:36.225Z,2932
2017-07-29T07:19:36.273Z,3064
2017-07-29T07:20:36.278Z,3312
2017-07-29T07:21:36.332Z,3584
2017-07-29T07:22:36.350Z,3824
2017-07-29T07:23:50.964Z,4260
2017-07-29T07:24:36.074Z,4476
2017-07-29T07:25:36.092Z,4564
2017-07-29T07:26:36.135Z,4752
2017-07-29T07:29:51.127Z,5300
2017-07-29T07:30:36.237Z,5124
2017-07-29T07:31:36.279Z,5044
2017-07-29T07:32:36.589Z,4964
2017-07-29T07:33:36.323Z,4744
2017-07-29T07:34:36.655Z,4412
2017-07-29T07:35:36.372Z,4220
2017-07-29T07:36:36.379Z,3960
2017-07-29T07:37:36.412Z,3484
2017-07-29T07:38:36.739Z,3116
2017-07-29T07:39:36.776Z,2996
2017-07-29T07:40:36.480Z,2968
2017-07-29T07:41:51.411Z,2836
2017-07-29T07:42:36.830Z,2732
2017-07-29T07:43:36.885Z,2636
2017-07-29T07:44:36.886Z,2656
2017-07-29T07:46:51.551Z,3224
2017-07-29T07:47:36.957Z,3236
2017-07-29T07:48:37.010Z,3116
2017-07-29T07:49:37.029Z,2960
2017-07-29T07:50:37.067Z,3020
2017-07-29T07:51:36.770Z,3452
2017-07-29T07:52:37.120Z,4132
2017-07-29T07:53:37.142Z,4664
2017-07-29T07:54:36.846Z,5048
2017-07-29T07:55:51.782Z,5064
2017-07-29T07:56:36.873Z,4896
2017-07-29T07:57:36.631Z,4712
2017-07-29T07:58:36.940Z,4672
2017-07-29T07:59:36.987Z,4584
2017-07-29T08:00:37.301Z,4756
2017-07-29T08:01:51.918Z,5096
2017-07-29T08:02:36.732Z,5416
2017-07-29T08:03:37.358Z,5872
2017-07-29T08:04:37.110Z,6224
2017-07-29T08:05:37.428Z,6548
2017-07-29T08:06:37.448Z,6892
2017-07-29T08:08:37.214Z,9532
2017-07-29T08:09:37.225Z,9848
2017-07-29T08:10:37.574Z,10628
2017-07-29T08:11:37.276Z,11760
2017-07-29T08:12:52.204Z,12100
2017-07-29T08:13:37.006Z,11996
2017-07-29T08:14:37.366Z,12080
2017-07-29T08:15:37.373Z,12016
2017-07-29T08:16:37.730Z,11872
2017-07-29T08:17:52.327Z,11624
2017-07-29T08:18:37.769Z,11608
2017-07-29T08:19:37.830Z,11680
2017-07-29T08:20:52.093Z,12364
2017-07-29T08:21:37.531Z,13072
2017-07-29T08:22:37.878Z,14008
2017-07-29T08:23:37.914Z,15972
2017-07-29T08:24:37.904Z,17888
2017-07-29T08:25:37.949Z,20160
2017-07-29T08:26:52.567Z,20512
2017-07-29T08:27:38.010Z,20320
2017-07-29T08:28:52.629Z,19936
2017-07-29T08:29:38.059Z,19296
2017-07-29T08:30:38.086Z,19872
2017-07-29T08:31:38.089Z,19680
2017-07-29T08:32:52.456Z,18848
2017-07-29T08:33:38.152Z,18496
2017-07-29T08:34:37.874Z,19136
2017-07-29T08:35:38.157Z,20160
2017-07-29T08:36:37.937Z,25376
2017-07-29T08:38:38.297Z,21888
2017-07-29T08:39:38.018Z,26560
2017-07-29T08:40:38.374Z,25504
2017-07-29T08:41:38.070Z,27424
2017-07-29T08:43:38.425Z,27104
2017-07-29T08:44:53.076Z,25056
2017-07-29T08:45:52.789Z,25696
2017-07-29T08:46:38.525Z,33888
2017-07-29T08:47:38.248Z,28640
2017-07-29T08:48:38.588Z,28608
2017-07-29T08:49:38.607Z,31264
2017-07-29T08:50:38.646Z,28480
2017-07-29T08:51:38.675Z,26528
2017-07-29T08:52:38.710Z,24448
2017-07-29T08:53:38.430Z,22752
2017-07-29T08:54:38.759Z,21504
2017-07-29T08:56:39.149Z,19904
2017-07-29T08:57:38.555Z,19584
2017-07-29T08:58:38.575Z,18176
2017-07-29T08:59:38.925Z,16908
2017-07-29T09:00:38.961Z,20992
2017-07-29T09:01:38.671Z,22432
2017-07-29T09:02:39.011Z,22400
2017-07-29T09:03:39.051Z,22144
2017-07-29T09:04:53.676Z,21440
2017-07-29T09:05:38.793Z,20800
2017-07-29T09:06:39.146Z,20064
2017-07-29T09:07:38.867Z,19296
2017-07-29T09:08:38.892Z,18656
2017-07-29T09:09:38.935Z,18144
2017-07-29T09:10:39.255Z,17920
2017-07-29T09:11:53.920Z,16612
2017-07-29T09:12:39.036Z,16772
2017-07-29T09:13:39.080Z,16620
2017-07-29T09:14:39.098Z,16508
2017-07-29T09:15:39.435Z,16520
2017-07-29T09:16:39.453Z,16520
2017-07-29T09:17:39.495Z,15896
2017-07-29T09:18:39.538Z,16008
2017-07-29T09:19:39.568Z,15912
2017-07-29T09:21:39.637Z,15844
2017-07-29T09:22:39.367Z,14868
2017-07-29T09:23:39.693Z,12884
2017-07-29T09:24:39.116Z,11660
2017-07-29T09:25:39.457Z,10648
2017-07-29T09:26:39.806Z,10800
2017-07-29T09:27:39.512Z,12776
2017-07-29T09:28:39.853Z,14184
2017-07-29T09:29:39.911Z,11432
2017-07-29T09:30:39.931Z,11472
2017-07-29T09:31:39.325Z,12044
2017-07-29T09:32:40.009Z,14196
2017-07-29T09:33:40.062Z,13740
2017-07-29T09:34:39.739Z,13464
2017-07-29T09:35:39.768Z,14044
2017-07-29T09:36:54.732Z,15292
2017-07-29T09:37:39.907Z,12716
2017-07-29T09:38:39.865Z,13428
2017-07-29T09:39:40.213Z,16992
2017-07-29T09:40:40.236Z,19904
2017-07-29T09:42:40.303Z,18080
2017-07-29T09:43:54.960Z,20352
2017-07-29T09:44:40.381Z,19872
2017-07-29T09:46:40.437Z,14072
2017-07-29T09:47:40.473Z,17952
2017-07-29T09:48:40.511Z,14712
2017-07-29T09:49:40.223Z,15104
2017-07-29T09:50:40.267Z,14120
2017-07-29T09:51:40.586Z,15036
2017-07-29T09:52:55.239Z,13804
2017-07-29T09:53:55.254Z,13232
2017-07-29T09:54:40.692Z,13120
2017-07-29T09:55:40.424Z,14040
2017-07-29T09:56:40.453Z,13444
2017-07-29T09:57:40.795Z,13472
2017-07-29T09:58:40.839Z,12748
2017-07-29T09:59:40.851Z,12336
2017-07-29T10:00:55.495Z,11780
2017-07-29T10:01:40.909Z,18272
2017-07-29T10:02:40.645Z,17824
2017-07-29T10:03:40.980Z,21120
2017-07-29T10:04:41.014Z,15284
2017-07-29T10:05:55.632Z,14292
2017-07-29T10:06:41.072Z,14856
2017-07-29T10:07:55.719Z,14352
2017-07-29T10:08:40.817Z,14240
2017-07-29T10:09:41.174Z,15912
2017-07-29T10:10:41.183Z,20416
2017-07-29T10:12:41.261Z,21184
2017-07-29T10:13:41.286Z,17632
2017-07-29T10:14:41.331Z,20448
2017-07-29T10:15:55.946Z,13892
2017-07-29T10:16:41.390Z,13172
2017-07-29T10:17:41.416Z,12764
2017-07-29T10:19:56.087Z,12052
2017-07-29T10:21:41.552Z,9504
2017-07-29T10:22:41.268Z,10900
2017-07-29T10:23:41.595Z,11800
2017-07-29T10:24:55.934Z,15472
2017-07-29T10:25:41.363Z,15604
2017-07-29T10:26:41.711Z,17920
2017-07-29T10:27:41.417Z,14868
2017-07-29T10:29:41.472Z,15640
2017-07-29T10:30:41.816Z,12700
2017-07-29T10:31:41.555Z,14936
2017-07-29T10:32:41.873Z,11804
2017-07-29T10:33:41.938Z,11300
2017-07-29T10:34:41.637Z,9376
2017-07-29T10:35:41.991Z,11184
2017-07-29T10:37:41.740Z,18304
2017-07-29T10:38:56.680Z,11164
2017-07-29T10:39:56.697Z,12028
2017-07-29T10:40:56.749Z,13476
2017-07-29T10:41:41.869Z,16656
2017-07-29T10:42:41.897Z,15900
2017-07-29T10:43:42.230Z,9312
2017-07-29T10:44:56.558Z,8512
2017-07-29T10:45:56.904Z,8352
2017-07-29T10:46:42.014Z,8096
2017-07-29T10:47:41.733Z,8948
2017-07-29T10:48:56.987Z,9572
2017-07-29T10:49:42.099Z,9652
2017-07-29T10:50:56.753Z,12608
2017-07-29T10:51:56.768Z,13900
2017-07-29T10:52:56.793Z,14572
2017-07-29T10:53:42.243Z,15136
2017-07-29T10:54:42.236Z,8732
2017-07-29T10:55:57.215Z,7820
2017-07-29T10:56:42.342Z,7204
2017-07-29T10:57:42.667Z,11116
2017-07-29T10:58:42.383Z,15264
2017-07-29T10:59:42.710Z,15696
2017-07-29T11:00:42.765Z,15836
2017-07-29T11:01:42.804Z,15376
2017-07-29T11:02:42.525Z,15940
2017-07-29T11:03:42.527Z,15592
2017-07-29T11:04:42.586Z,10832
2017-07-29T11:06:42.628Z,11064
2017-07-29T11:07:42.660Z,11112
2017-07-29T11:08:43.010Z,10868
2017-07-29T11:09:43.036Z,10464
2017-07-29T11:10:43.061Z,10064
2017-07-29T11:11:57.683Z,9068
2017-07-29T11:12:42.809Z,8412
2017-07-29T11:13:42.554Z,7812
2017-07-29T11:14:42.882Z,7500
2017-07-29T11:15:42.923Z,7612
2017-07-29T11:16:42.938Z,8120
2017-07-29T11:18:43.318Z,9644
2017-07-29T11:19:43.342Z,10156
2017-07-29T11:20:57.973Z,10712
2017-07-29T11:21:43.406Z,10844
2017-07-29T11:22:43.440Z,10752
2017-07-29T11:23:43.458Z,10488
2017-07-29T11:24:43.176Z,10080
2017-07-29T11:25:43.533Z,9368
2017-07-29T11:26:43.242Z,9072
2017-07-29T11:27:58.172Z,8656
2017-07-29T11:28:43.611Z,8396
2017-07-29T11:29:58.242Z,7996
2017-07-29T11:30:43.362Z,7944
2017-07-29T11:31:43.708Z,7808
2017-07-29T11:33:43.775Z,7680
2017-07-29T11:34:43.784Z,7840
2017-07-29T11:35:43.828Z,8196
2017-07-29T11:36:43.216Z,8540
2017-07-29T11:37:58.488Z,8572
2017-07-29T11:38:43.905Z,8344
2017-07-29T11:39:43.947Z,8136
2017-07-29T11:40:58.579Z,8208
2017-07-29T11:41:43.994Z,8580
2017-07-29T11:42:58.628Z,9176
2017-07-29T11:43:44.067Z,9496
2017-07-29T11:44:43.776Z,9544
2017-07-29T11:45:58.417Z,9876
2017-07-29T11:47:43.854Z,10300
2017-07-29T11:48:44.205Z,10936
2017-07-29T11:49:43.936Z,11248
2017-07-29T11:50:44.291Z,10980
2017-07-29T11:51:44.279Z,11596
2017-07-29T11:52:44.047Z,9972
2017-07-29T11:53:44.350Z,9584
2017-07-29T11:54:44.399Z,9476
2017-07-29T11:55:44.419Z,9156
2017-07-29T11:56:44.468Z,8888
2017-07-29T11:57:44.462Z,8868
2017-07-29T11:58:44.517Z,8840
2017-07-29T11:59:44.533Z,9376
2017-07-29T12:00:44.562Z,9916
2017-07-29T12:01:44.612Z,10656
2017-07-29T12:02:44.620Z,10980
2017-07-29T12:03:44.678Z,10728
2017-07-29T12:04:44.373Z,10528
2017-07-29T12:05:44.727Z,10804
2017-07-29T12:06:44.738Z,11972
2017-07-29T12:07:44.770Z,11972
2017-07-29T12:09:44.828Z,11840
2017-07-29T12:10:44.863Z,11864
2017-07-29T12:11:59.502Z,11524
2017-07-29T12:12:44.601Z,8768
2017-07-29T12:13:59.560Z,10952
2017-07-29T12:14:59.589Z,10968
2017-07-29T12:15:45.006Z,9172
2017-07-29T12:16:45.045Z,9316
2017-07-29T12:17:45.078Z,9072
2017-07-29T12:18:45.111Z,9556
2017-07-29T12:19:45.113Z,9348
2017-07-29T12:21:45.193Z,10456
2017-07-29T12:22:45.216Z,10172
2017-07-29T12:23:45.251Z,9676
2017-07-29T12:24:45.296Z,9940
2017-07-29T12:25:45.320Z,12232
2017-07-29T12:26:45.337Z,10008
2017-07-29T12:27:45.377Z,9848
2017-07-29T12:28:45.419Z,9748
2017-07-29T12:30:00.042Z,9860
2017-07-29T12:31:00.076Z,9544
2017-07-29T12:31:45.512Z,9416
2017-07-29T12:33:00.128Z,9056
2017-07-29T12:33:45.554Z,8444
2017-07-29T12:34:45.571Z,10400
2017-07-29T12:35:45.314Z,10284
2017-07-29T12:37:00.254Z,9044
2017-07-29T12:37:45.374Z,8816
2017-07-29T12:38:45.396Z,8176
2017-07-29T12:39:45.417Z,7728
2017-07-29T12:40:45.782Z,7480
2017-07-29T12:41:45.818Z,6644
2017-07-29T12:43:00.435Z,7392
2017-07-29T12:43:45.548Z,6708
2017-07-29T12:44:45.887Z,7124
2017-07-29T12:45:45.934Z,7032
2017-07-29T12:47:00.531Z,5628
2017-07-29T12:47:45.977Z,7192
2017-07-29T12:48:45.726Z,6972
2017-07-29T12:49:46.033Z,5428
2017-07-29T12:50:46.060Z,5772
2017-07-29T12:51:45.770Z,6296
2017-07-29T12:52:46.151Z,4696
2017-07-29T12:53:45.547Z,6320
2017-07-29T12:54:46.197Z,7176
2017-07-29T12:55:45.893Z,6172
2017-07-29T12:56:45.938Z,5236
2017-07-29T12:58:00.864Z,5192
2017-07-29T12:58:46.603Z,5348
2017-07-29T12:59:46.318Z,7020
2017-07-29T13:00:46.056Z,5932
2017-07-29T13:01:46.403Z,6104
2017-07-29T13:03:01.012Z,5800
2017-07-29T13:03:46.142Z,5752
2017-07-29T13:04:46.177Z,7508
2017-07-29T13:05:46.503Z,6240
2017-07-29T13:06:46.227Z,5788
2017-07-29T13:07:46.562Z,6272
2017-07-29T13:08:46.595Z,6504
2017-07-29T13:09:46.620Z,6700
2017-07-29T13:10:46.680Z,6904
2017-07-29T13:11:46.696Z,8164
2017-07-29T13:12:46.710Z,7788
2017-07-29T13:13:46.752Z,8344
2017-07-29T13:14:46.770Z,8440
2017-07-29T13:15:46.814Z,7940
2017-07-29T13:16:46.838Z,7592
2017-07-29T13:18:01.469Z,10612
2017-07-29T13:18:46.880Z,9964
2017-07-29T13:19:46.925Z,9152
2017-07-29T13:20:46.934Z,8964
2017-07-29T13:21:46.980Z,11204
2017-07-29T13:22:47.006Z,10228
2017-07-29T13:23:47.047Z,11244
2017-07-29T13:24:47.082Z,10296
2017-07-29T13:25:47.085Z,11376
2017-07-29T13:26:47.113Z,11856
2017-07-29T13:28:01.750Z,8532
2017-07-29T13:29:01.794Z,8804
2017-07-29T13:29:47.211Z,9992
2017-07-29T13:32:47.307Z,8924
2017-07-29T13:33:47.336Z,9432
2017-07-29T13:34:47.383Z,9664
2017-07-29T13:35:47.392Z,8676
2017-07-29T13:36:47.443Z,7672
2017-07-29T13:37:46.829Z,9216
2017-07-29T13:38:47.482Z,8980
2017-07-29T13:39:47.502Z,8900
2017-07-29T13:40:47.554Z,6348
2017-07-29T13:41:47.581Z,6124
2017-07-29T13:42:47.605Z,6776
2017-07-29T13:43:47.628Z,8912
2017-07-29T13:44:47.947Z,8764
2017-07-29T13:46:01.984Z,8496
2017-07-29T13:47:47.773Z,8704
2017-07-29T13:48:47.782Z,7812
2017-07-29T13:50:02.402Z,8288
2017-07-29T13:51:02.448Z,8028
2017-07-29T13:53:02.498Z,5280
2017-07-29T13:53:47.926Z,4916
2017-07-29T13:54:47.659Z,4688
2017-07-29T13:55:48.002Z,5140
2017-07-29T13:56:47.713Z,7456
2017-07-29T13:57:47.762Z,6212
2017-07-29T13:59:02.691Z,7880
2017-07-29T13:59:48.132Z,7008
2017-07-29T14:00:47.836Z,7580
2017-07-29T14:01:47.867Z,7620
2017-07-29T14:02:47.897Z,7648
2017-07-29T14:03:47.916Z,8448
2017-07-29T14:04:47.965Z,8840
2017-07-29T14:06:02.901Z,8836
2017-07-29T14:06:48.307Z,8532
2017-07-29T14:07:48.350Z,8352
2017-07-29T14:08:48.387Z,8012
2017-07-29T14:10:48.445Z,7224
2017-07-29T14:11:48.475Z,6964